sensor_id;sensor_type;location;lat;lon;timestamp;P1;durP1;ratioP1;P2;durP2;ratioP2
28848;SDS011;15981;43.292;-2.888;2023-04-24T00:00:54;2.47;;;1.60;;
28848;SDS011;15981;43.292;-2.888;2023-04-24T00:03:24;1.90;;;1.35;;
28848;SDS011;15981;43.292;-2.888;2023-04-24T00:05:51;3.50;;;1.60;;
28848;SDS011;15981;43.292;-2.888;2023-04-24T00:08:17;2.30;;;1.40;;
28848;SDS011;15981;43.292;-2.888;2023-04-24T00:10:43;2.37;;;1.63;;
28848;SDS011;15981;43.292;-2.888;2023-04-24T00:13:09;2.28;;;1.48;;
28848;SDS011;15981;43.292;-2.888;2023-04-24T00:15:35;1.50;;;1.40;;
28848;SDS011;15981;43.292;-2.888;2023-04-24T00:18:01;1.80;;;1.30;;
28848;SDS011;15981;43.292;-2.888;2023-04-24T00:20:27;1.83;;;1.35;;
28848;SDS011;15981;43.292;-2.888;2023-04-24T00:22:54;2.40;;;1.48;;
28848;SDS011;15981;43.292;-2.888;2023-04-24T00:25:20;2.08;;;1.33;;
28848;SDS011;15981;43.292;-2.888;2023-04-24T00:27:46;1.60;;;1.30;;
28848;SDS011;15981;43.292;-2.888;2023-04-24T00:30:12;1.40;;;1.27;;
28848;SDS011;15981;43.292;-2.888;2023-04-24T00:32:37;1.73;;;1.27;;
28848;SDS011;15981;43.292;-2.888;2023-04-24T00:35:03;2.22;;;1.27;;
28848;SDS011;15981;43.292;-2.888;2023-04-24T00:37:29;1.90;;;1.70;;
28848;SDS011;15981;43.292;-2.888;2023-04-24T00:39:55;1.90;;;1.30;;
28848;SDS011;15981;43.292;-2.888;2023-04-24T00:42:20;1.20;;;1.10;;
28848;SDS011;15981;43.292;-2.888;2023-04-24T00:44:46;2.20;;;1.50;;
28848;SDS011;15981;43.292;-2.888;2023-04-24T00:47:12;2.17;;;1.30;;
28848;SDS011;15981;43.292;-2.888;2023-04-24T00:49:38;3.27;;;1.60;;
28848;SDS011;15981;43.292;-2.888;2023-04-24T00:52:04;1.50;;;1.30;;
28848;SDS011;15981;43.292;-2.888;2023-04-24T00:54:33;2.80;;;1.35;;
28848;SDS011;15981;43.292;-2.888;2023-04-24T00:56:58;1.80;;;1.57;;
28848;SDS011;15981;43.292;-2.888;2023-04-24T00:59:26;2.10;;;1.45;;
28848;SDS011;15981;43.292;-2.888;2023-04-24T01:01:52;1.73;;;1.40;;
28848;SDS011;15981;43.292;-2.888;2023-04-24T01:04:18;1.48;;;1.38;;
28848;SDS011;15981;43.292;-2.888;2023-04-24T01:06:44;2.17;;;1.50;;
28848;SDS011;15981;43.292;-2.888;2023-04-24T01:09:10;1.55;;;1.30;;
28848;SDS011;15981;43.292;-2.888;2023-04-24T01:11:37;1.80;;;1.40;;
28848;SDS011;15981;43.292;-2.888;2023-04-24T01:14:03;2.53;;;1.27;;
28848;SDS011;15981;43.292;-2.888;2023-04-24T01:16:29;2.08;;;1.27;;
28848;SDS011;15981;43.292;-2.888;2023-04-24T01:18:54;1.83;;;1.40;;
28848;SDS011;15981;43.292;-2.888;2023-04-24T01:21:20;2.17;;;1.30;;
28848;SDS011;15981;43.292;-2.888;2023-04-24T01:23:46;1.73;;;1.40;;
28848;SDS011;15981;43.292;-2.888;2023-04-24T01:26:13;2.60;;;1.30;;
28848;SDS011;15981;43.292;-2.888;2023-04-24T01:28:39;2.70;;;1.42;;
28848;SDS011;15981;43.292;-2.888;2023-04-24T01:31:05;2.28;;;1.40;;
28848;SDS011;15981;43.292;-2.888;2023-04-24T01:33:31;1.60;;;1.40;;
28848;SDS011;15981;43.292;-2.888;2023-04-24T01:35:57;2.47;;;1.42;;
28848;SDS011;15981;43.292;-2.888;2023-04-24T01:38:22;2.30;;;1.50;;
28848;SDS011;15981;43.292;-2.888;2023-04-24T01:40:49;2.13;;;1.33;;
28848;SDS011;15981;43.292;-2.888;2023-04-24T01:43:15;1.77;;;1.30;;
28848;SDS011;15981;43.292;-2.888;2023-04-24T01:45:41;2.60;;;1.30;;
28848;SDS011;15981;43.292;-2.888;2023-04-24T01:48:06;1.85;;;1.50;;
28848;SDS011;15981;43.292;-2.888;2023-04-24T01:50:32;2.25;;;1.50;;
28848;SDS011;15981;43.292;-2.888;2023-04-24T01:52:58;1.90;;;1.50;;
28848;SDS011;15981;43.292;-2.888;2023-04-24T01:55:24;1.90;;;1.50;;
28848;SDS011;15981;43.292;-2.888;2023-04-24T01:57:49;2.17;;;1.52;;
28848;SDS011;15981;43.292;-2.888;2023-04-24T02:00:15;3.35;;;1.50;;
28848;SDS011;15981;43.292;-2.888;2023-04-24T02:02:41;2.07;;;1.40;;
28848;SDS011;15981;43.292;-2.888;2023-04-24T02:05:07;2.30;;;1.40;;
28848;SDS011;15981;43.292;-2.888;2023-04-24T02:07:33;2.35;;;1.45;;
28848;SDS011;15981;43.292;-2.888;2023-04-24T02:09:59;1.50;;;1.20;;
28848;SDS011;15981;43.292;-2.888;2023-04-24T02:12:24;2.00;;;1.30;;
28848;SDS011;15981;43.292;-2.888;2023-04-24T02:14:50;3.17;;;1.60;;
28848;SDS011;15981;43.292;-2.888;2023-04-24T02:17:16;1.80;;;1.42;;
28848;SDS011;15981;43.292;-2.888;2023-04-24T02:19:42;2.65;;;1.55;;
28848;SDS011;15981;43.292;-2.888;2023-04-24T02:22:08;3.10;;;1.73;;
28848;SDS011;15981;43.292;-2.888;2023-04-24T02:24:33;2.53;;;1.42;;
28848;SDS011;15981;43.292;-2.888;2023-04-24T02:26:59;2.00;;;1.63;;
28848;SDS011;15981;43.292;-2.888;2023-04-24T02:29:25;2.28;;;1.90;;
28848;SDS011;15981;43.292;-2.888;2023-04-24T02:31:51;2.00;;;1.43;;
28848;SDS011;15981;43.292;-2.888;2023-04-24T02:34:16;2.50;;;1.70;;
28848;SDS011;15981;43.292;-2.888;2023-04-24T02:36:42;2.30;;;1.67;;
28848;SDS011;15981;43.292;-2.888;2023-04-24T02:39:08;3.10;;;1.80;;
28848;SDS011;15981;43.292;-2.888;2023-04-24T02:41:33;2.38;;;1.67;;
28848;SDS011;15981;43.292;-2.888;2023-04-24T02:43:59;2.08;;;1.52;;
28848;SDS011;15981;43.292;-2.888;2023-04-24T02:46:25;3.67;;;1.87;;
28848;SDS011;15981;43.292;-2.888;2023-04-24T02:48:51;2.72;;;1.75;;
28848;SDS011;15981;43.292;-2.888;2023-04-24T02:51:16;2.33;;;1.90;;
28848;SDS011;15981;43.292;-2.888;2023-04-24T02:53:42;2.40;;;1.73;;
28848;SDS011;15981;43.292;-2.888;2023-04-24T02:56:08;2.17;;;1.63;;
28848;SDS011;15981;43.292;-2.888;2023-04-24T02:58:34;3.10;;;1.73;;
28848;SDS011;15981;43.292;-2.888;2023-04-24T03:01:00;3.13;;;2.15;;
28848;SDS011;15981;43.292;-2.888;2023-04-24T03:03:26;2.33;;;1.70;;
28848;SDS011;15981;43.292;-2.888;2023-04-24T03:05:52;2.83;;;2.00;;
28848;SDS011;15981;43.292;-2.888;2023-04-24T03:08:17;2.47;;;1.70;;
28848;SDS011;15981;43.292;-2.888;2023-04-24T03:10:43;2.28;;;1.80;;
28848;SDS011;15981;43.292;-2.888;2023-04-24T03:13:09;2.53;;;1.80;;
28848;SDS011;15981;43.292;-2.888;2023-04-24T03:15:35;2.30;;;1.70;;
28848;SDS011;15981;43.292;-2.888;2023-04-24T03:18:00;2.67;;;1.52;;
28848;SDS011;15981;43.292;-2.888;2023-04-24T03:20:26;2.60;;;1.92;;
28848;SDS011;15981;43.292;-2.888;2023-04-24T03:22:52;2.30;;;1.60;;
28848;SDS011;15981;43.292;-2.888;2023-04-24T03:25:18;2.83;;;1.70;;
28848;SDS011;15981;43.292;-2.888;2023-04-24T03:27:43;3.08;;;1.60;;
28848;SDS011;15981;43.292;-2.888;2023-04-24T03:30:10;2.88;;;1.80;;
28848;SDS011;15981;43.292;-2.888;2023-04-24T03:32:35;2.20;;;1.80;;
28848;SDS011;15981;43.292;-2.888;2023-04-24T03:35:01;2.83;;;1.70;;
28848;SDS011;15981;43.292;-2.888;2023-04-24T03:37:27;2.50;;;1.70;;
28848;SDS011;15981;43.292;-2.888;2023-04-24T03:39:53;2.88;;;1.80;;
28848;SDS011;15981;43.292;-2.888;2023-04-24T03:42:18;2.93;;;1.90;;
28848;SDS011;15981;43.292;-2.888;2023-04-24T03:44:44;3.40;;;2.10;;
28848;SDS011;15981;43.292;-2.888;2023-04-24T03:47:10;2.37;;;1.80;;
28848;SDS011;15981;43.292;-2.888;2023-04-24T03:49:35;2.27;;;1.80;;
28848;SDS011;15981;43.292;-2.888;2023-04-24T03:52:01;2.05;;;1.80;;
28848;SDS011;15981;43.292;-2.888;2023-04-24T03:54:27;2.95;;;2.00;;
28848;SDS011;15981;43.292;-2.888;2023-04-24T03:56:53;3.07;;;1.90;;
28848;SDS011;15981;43.292;-2.888;2023-04-24T03:59:19;2.65;;;1.90;;
28848;SDS011;15981;43.292;-2.888;2023-04-24T04:01:44;2.92;;;2.10;;
28848;SDS011;15981;43.292;-2.888;2023-04-24T04:04:11;2.65;;;1.90;;
28848;SDS011;15981;43.292;-2.888;2023-04-24T04:06:36;3.53;;;2.10;;
28848;SDS011;15981;43.292;-2.888;2023-04-24T04:09:02;2.88;;;2.00;;
28848;SDS011;15981;43.292;-2.888;2023-04-24T04:11:28;2.43;;;2.00;;
28848;SDS011;15981;43.292;-2.888;2023-04-24T04:13:54;3.25;;;1.98;;
28848;SDS011;15981;43.292;-2.888;2023-04-24T04:16:20;2.90;;;1.95;;
28848;SDS011;15981;43.292;-2.888;2023-04-24T04:18:46;3.10;;;2.10;;
28848;SDS011;15981;43.292;-2.888;2023-04-24T04:21:12;3.08;;;2.13;;
28848;SDS011;15981;43.292;-2.888;2023-04-24T04:23:38;2.45;;;2.22;;
28848;SDS011;15981;43.292;-2.888;2023-04-24T04:26:03;3.17;;;2.27;;
28848;SDS011;15981;43.292;-2.888;2023-04-24T04:28:29;3.25;;;2.22;;
28848;SDS011;15981;43.292;-2.888;2023-04-24T04:30:58;2.72;;;2.03;;
28848;SDS011;15981;43.292;-2.888;2023-04-24T04:33:24;2.43;;;2.03;;
28848;SDS011;15981;43.292;-2.888;2023-04-24T04:35:49;2.78;;;2.10;;
28848;SDS011;15981;43.292;-2.888;2023-04-24T04:38:17;3.03;;;2.22;;
28848;SDS011;15981;43.292;-2.888;2023-04-24T04:40:43;3.35;;;2.40;;
28848;SDS011;15981;43.292;-2.888;2023-04-24T04:43:09;4.35;;;2.65;;
28848;SDS011;15981;43.292;-2.888;2023-04-24T04:45:39;3.50;;;2.10;;
28848;SDS011;15981;43.292;-2.888;2023-04-24T04:48:06;3.65;;;2.22;;
28848;SDS011;15981;43.292;-2.888;2023-04-24T04:50:37;3.20;;;2.33;;
28848;SDS011;15981;43.292;-2.888;2023-04-24T04:53:03;3.97;;;2.20;;
28848;SDS011;15981;43.292;-2.888;2023-04-24T04:55:29;4.57;;;2.53;;
28848;SDS011;15981;43.292;-2.888;2023-04-24T04:57:55;3.33;;;2.17;;
28848;SDS011;15981;43.292;-2.888;2023-04-24T05:00:21;2.60;;;2.10;;
28848;SDS011;15981;43.292;-2.888;2023-04-24T05:02:47;3.60;;;2.53;;
28848;SDS011;15981;43.292;-2.888;2023-04-24T05:05:13;3.75;;;2.55;;
28848;SDS011;15981;43.292;-2.888;2023-04-24T05:07:38;4.27;;;2.60;;
28848;SDS011;15981;43.292;-2.888;2023-04-24T05:10:04;3.53;;;2.35;;
28848;SDS011;15981;43.292;-2.888;2023-04-24T05:12:30;3.75;;;2.10;;
28848;SDS011;15981;43.292;-2.888;2023-04-24T05:14:56;3.23;;;2.07;;
28848;SDS011;15981;43.292;-2.888;2023-04-24T05:17:21;4.18;;;2.60;;
28848;SDS011;15981;43.292;-2.888;2023-04-24T05:19:47;4.43;;;2.70;;
28848;SDS011;15981;43.292;-2.888;2023-04-24T05:22:13;2.90;;;1.93;;
28848;SDS011;15981;43.292;-2.888;2023-04-24T05:24:39;3.53;;;2.53;;
28848;SDS011;15981;43.292;-2.888;2023-04-24T05:27:04;3.22;;;2.25;;
28848;SDS011;15981;43.292;-2.888;2023-04-24T05:29:30;3.00;;;2.33;;
28848;SDS011;15981;43.292;-2.888;2023-04-24T05:31:57;3.17;;;2.35;;
28848;SDS011;15981;43.292;-2.888;2023-04-24T05:34:23;3.42;;;2.50;;
28848;SDS011;15981;43.292;-2.888;2023-04-24T05:36:48;3.77;;;2.50;;
28848;SDS011;15981;43.292;-2.888;2023-04-24T05:39:16;3.40;;;2.30;;
28848;SDS011;15981;43.292;-2.888;2023-04-24T05:41:41;2.60;;;1.90;;
28848;SDS011;15981;43.292;-2.888;2023-04-24T05:44:07;3.08;;;2.38;;
28848;SDS011;15981;43.292;-2.888;2023-04-24T05:46:33;3.40;;;2.37;;
28848;SDS011;15981;43.292;-2.888;2023-04-24T05:48:58;3.70;;;2.40;;
28848;SDS011;15981;43.292;-2.888;2023-04-24T05:51:24;3.92;;;2.00;;
28848;SDS011;15981;43.292;-2.888;2023-04-24T05:53:51;3.15;;;2.17;;
28848;SDS011;15981;43.292;-2.888;2023-04-24T05:56:17;5.40;;;2.90;;
28848;SDS011;15981;43.292;-2.888;2023-04-24T05:58:42;5.07;;;3.10;;
28848;SDS011;15981;43.292;-2.888;2023-04-24T06:01:08;5.73;;;2.67;;
28848;SDS011;15981;43.292;-2.888;2023-04-24T06:03:35;5.57;;;3.15;;
28848;SDS011;15981;43.292;-2.888;2023-04-24T06:06:00;4.73;;;3.33;;
28848;SDS011;15981;43.292;-2.888;2023-04-24T06:08:26;6.10;;;3.08;;
28848;SDS011;15981;43.292;-2.888;2023-04-24T06:10:52;6.72;;;3.40;;
28848;SDS011;15981;43.292;-2.888;2023-04-24T06:13:17;5.10;;;3.20;;
28848;SDS011;15981;43.292;-2.888;2023-04-24T06:15:43;3.90;;;3.10;;
28848;SDS011;15981;43.292;-2.888;2023-04-24T06:18:09;4.80;;;2.92;;
28848;SDS011;15981;43.292;-2.888;2023-04-24T06:20:38;5.68;;;2.78;;
28848;SDS011;15981;43.292;-2.888;2023-04-24T06:23:04;5.17;;;3.17;;
28848;SDS011;15981;43.292;-2.888;2023-04-24T06:25:30;4.67;;;2.77;;
28848;SDS011;15981;43.292;-2.888;2023-04-24T06:27:55;3.88;;;2.58;;
28848;SDS011;15981;43.292;-2.888;2023-04-24T06:30:22;4.10;;;2.53;;
28848;SDS011;15981;43.292;-2.888;2023-04-24T06:32:48;4.38;;;2.72;;
28848;SDS011;15981;43.292;-2.888;2023-04-24T06:35:13;5.20;;;2.63;;
28848;SDS011;15981;43.292;-2.888;2023-04-24T06:37:41;5.27;;;2.93;;
28848;SDS011;15981;43.292;-2.888;2023-04-24T06:40:09;6.25;;;2.65;;
28848;SDS011;15981;43.292;-2.888;2023-04-24T06:42:35;3.83;;;2.50;;
28848;SDS011;15981;43.292;-2.888;2023-04-24T06:45:01;4.00;;;2.40;;
28848;SDS011;15981;43.292;-2.888;2023-04-24T06:47:27;4.25;;;2.40;;
28848;SDS011;15981;43.292;-2.888;2023-04-24T06:49:53;4.72;;;2.88;;
28848;SDS011;15981;43.292;-2.888;2023-04-24T06:52:19;4.07;;;2.43;;
28848;SDS011;15981;43.292;-2.888;2023-04-24T06:54:45;4.68;;;2.63;;
28848;SDS011;15981;43.292;-2.888;2023-04-24T06:57:11;4.17;;;2.60;;
28848;SDS011;15981;43.292;-2.888;2023-04-24T06:59:37;3.47;;;2.30;;
28848;SDS011;15981;43.292;-2.888;2023-04-24T07:02:02;3.78;;;2.60;;
28848;SDS011;15981;43.292;-2.888;2023-04-24T07:04:29;3.92;;;2.83;;
28848;SDS011;15981;43.292;-2.888;2023-04-24T07:06:55;6.37;;;2.70;;
28848;SDS011;15981;43.292;-2.888;2023-04-24T07:09:22;4.53;;;2.70;;
28848;SDS011;15981;43.292;-2.888;2023-04-24T07:11:49;4.05;;;2.70;;
28848;SDS011;15981;43.292;-2.888;2023-04-24T07:14:15;4.28;;;2.67;;
28848;SDS011;15981;43.292;-2.888;2023-04-24T07:16:41;4.18;;;2.92;;
28848;SDS011;15981;43.292;-2.888;2023-04-24T07:19:07;4.45;;;2.70;;
28848;SDS011;15981;43.292;-2.888;2023-04-24T07:21:33;5.28;;;2.67;;
28848;SDS011;15981;43.292;-2.888;2023-04-24T07:23:59;6.30;;;2.90;;
28848;SDS011;15981;43.292;-2.888;2023-04-24T07:26:25;5.63;;;2.90;;
28848;SDS011;15981;43.292;-2.888;2023-04-24T07:28:51;6.85;;;3.35;;
28848;SDS011;15981;43.292;-2.888;2023-04-24T07:31:17;6.35;;;2.95;;
28848;SDS011;15981;43.292;-2.888;2023-04-24T07:33:42;6.60;;;2.90;;
28848;SDS011;15981;43.292;-2.888;2023-04-24T07:36:08;6.18;;;3.00;;
28848;SDS011;15981;43.292;-2.888;2023-04-24T07:38:41;7.75;;;3.50;;
28848;SDS011;15981;43.292;-2.888;2023-04-24T07:41:07;6.28;;;3.33;;
28848;SDS011;15981;43.292;-2.888;2023-04-24T07:43:33;5.20;;;3.23;;
28848;SDS011;15981;43.292;-2.888;2023-04-24T07:45:59;7.55;;;3.40;;
28848;SDS011;15981;43.292;-2.888;2023-04-24T07:48:25;5.15;;;2.65;;
28848;SDS011;15981;43.292;-2.888;2023-04-24T07:50:52;5.25;;;2.85;;
28848;SDS011;15981;43.292;-2.888;2023-04-24T07:53:17;4.70;;;2.45;;
28848;SDS011;15981;43.292;-2.888;2023-04-24T07:55:43;6.00;;;2.60;;
28848;SDS011;15981;43.292;-2.888;2023-04-24T07:58:09;5.80;;;3.55;;
28848;SDS011;15981;43.292;-2.888;2023-04-24T08:00:35;6.88;;;3.58;;
28848;SDS011;15981;43.292;-2.888;2023-04-24T08:03:01;5.63;;;3.40;;
28848;SDS011;15981;43.292;-2.888;2023-04-24T08:05:26;7.18;;;4.40;;
28848;SDS011;15981;43.292;-2.888;2023-04-24T08:07:54;8.25;;;5.43;;
28848;SDS011;15981;43.292;-2.888;2023-04-24T08:10:20;9.02;;;6.00;;
28848;SDS011;15981;43.292;-2.888;2023-04-24T08:12:46;10.23;;;6.13;;
28848;SDS011;15981;43.292;-2.888;2023-04-24T08:15:12;8.43;;;5.53;;
28848;SDS011;15981;43.292;-2.888;2023-04-24T08:17:38;9.17;;;5.77;;
28848;SDS011;15981;43.292;-2.888;2023-04-24T08:20:03;9.68;;;5.93;;
28848;SDS011;15981;43.292;-2.888;2023-04-24T08:22:30;10.23;;;6.33;;
28848;SDS011;15981;43.292;-2.888;2023-04-24T08:24:56;9.25;;;6.47;;
28848;SDS011;15981;43.292;-2.888;2023-04-24T08:27:23;9.15;;;5.68;;
28848;SDS011;15981;43.292;-2.888;2023-04-24T08:29:49;6.93;;;5.27;;
28848;SDS011;15981;43.292;-2.888;2023-04-24T08:32:15;6.72;;;4.60;;
28848;SDS011;15981;43.292;-2.888;2023-04-24T08:34:40;6.10;;;4.37;;
28848;SDS011;15981;43.292;-2.888;2023-04-24T08:37:06;6.03;;;4.38;;
28848;SDS011;15981;43.292;-2.888;2023-04-24T08:39:32;6.13;;;3.70;;
28848;SDS011;15981;43.292;-2.888;2023-04-24T08:41:58;6.47;;;3.87;;
28848;SDS011;15981;43.292;-2.888;2023-04-24T08:44:31;5.53;;;3.55;;
28848;SDS011;15981;43.292;-2.888;2023-04-24T08:46:57;8.52;;;3.75;;
28848;SDS011;15981;43.292;-2.888;2023-04-24T08:49:23;4.73;;;3.50;;
28848;SDS011;15981;43.292;-2.888;2023-04-24T08:51:49;6.10;;;3.60;;
28848;SDS011;15981;43.292;-2.888;2023-04-24T08:54:16;5.20;;;3.25;;
28848;SDS011;15981;43.292;-2.888;2023-04-24T08:56:43;7.07;;;3.55;;
28848;SDS011;15981;43.292;-2.888;2023-04-24T08:59:09;7.55;;;3.40;;
28848;SDS011;15981;43.292;-2.888;2023-04-24T09:01:35;5.40;;;3.08;;
28848;SDS011;15981;43.292;-2.888;2023-04-24T09:04:03;7.95;;;3.10;;
28848;SDS011;15981;43.292;-2.888;2023-04-24T09:06:29;8.63;;;3.45;;
28848;SDS011;15981;43.292;-2.888;2023-04-24T09:08:56;6.90;;;3.30;;
28848;SDS011;15981;43.292;-2.888;2023-04-24T09:11:22;3.80;;;2.45;;
28848;SDS011;15981;43.292;-2.888;2023-04-24T09:13:50;4.93;;;2.60;;
28848;SDS011;15981;43.292;-2.888;2023-04-24T09:16:16;6.10;;;2.40;;
28848;SDS011;15981;43.292;-2.888;2023-04-24T09:18:42;4.90;;;2.15;;
28848;SDS011;15981;43.292;-2.888;2023-04-24T09:21:08;2.80;;;1.87;;
28848;SDS011;15981;43.292;-2.888;2023-04-24T09:23:35;3.92;;;2.10;;
28848;SDS011;15981;43.292;-2.888;2023-04-24T09:26:02;3.57;;;1.57;;
28848;SDS011;15981;43.292;-2.888;2023-04-24T09:28:31;2.60;;;1.58;;
28848;SDS011;15981;43.292;-2.888;2023-04-24T09:31:19;2.35;;;1.80;;
28848;SDS011;15981;43.292;-2.888;2023-04-24T09:33:53;4.60;;;1.80;;
28848;SDS011;15981;43.292;-2.888;2023-04-24T09:36:19;4.53;;;1.83;;
28848;SDS011;15981;43.292;-2.888;2023-04-24T09:38:53;2.65;;;1.70;;
28848;SDS011;15981;43.292;-2.888;2023-04-24T09:41:19;2.85;;;1.70;;
28848;SDS011;15981;43.292;-2.888;2023-04-24T09:43:45;3.83;;;1.60;;
28848;SDS011;15981;43.292;-2.888;2023-04-24T09:46:10;2.67;;;1.73;;
28848;SDS011;15981;43.292;-2.888;2023-04-24T09:48:37;2.65;;;1.40;;
28848;SDS011;15981;43.292;-2.888;2023-04-24T09:51:04;2.78;;;1.50;;
28848;SDS011;15981;43.292;-2.888;2023-04-24T09:53:32;2.30;;;1.40;;
28848;SDS011;15981;43.292;-2.888;2023-04-24T09:56:10;2.85;;;1.48;;
28848;SDS011;15981;43.292;-2.888;2023-04-24T09:58:37;3.58;;;1.70;;
28848;SDS011;15981;43.292;-2.888;2023-04-24T10:01:03;2.80;;;1.47;;
28848;SDS011;15981;43.292;-2.888;2023-04-24T10:03:30;2.00;;;1.40;;
28848;SDS011;15981;43.292;-2.888;2023-04-24T10:05:59;2.08;;;1.40;;
28848;SDS011;15981;43.292;-2.888;2023-04-24T10:08:25;2.42;;;1.30;;
28848;SDS011;15981;43.292;-2.888;2023-04-24T10:10:52;2.28;;;1.50;;
28848;SDS011;15981;43.292;-2.888;2023-04-24T10:13:17;4.47;;;1.75;;
28848;SDS011;15981;43.292;-2.888;2023-04-24T10:15:43;4.35;;;1.60;;
28848;SDS011;15981;43.292;-2.888;2023-04-24T10:18:09;2.15;;;1.60;;
28848;SDS011;15981;43.292;-2.888;2023-04-24T10:20:36;2.35;;;1.60;;
28848;SDS011;15981;43.292;-2.888;2023-04-24T10:23:02;3.10;;;1.60;;
28848;SDS011;15981;43.292;-2.888;2023-04-24T10:25:29;2.27;;;1.60;;
28848;SDS011;15981;43.292;-2.888;2023-04-24T10:27:56;3.30;;;1.50;;
28848;SDS011;15981;43.292;-2.888;2023-04-24T10:30:25;2.00;;;1.48;;
28848;SDS011;15981;43.292;-2.888;2023-04-24T10:32:51;2.38;;;1.40;;
28848;SDS011;15981;43.292;-2.888;2023-04-24T10:35:16;2.83;;;1.80;;
28848;SDS011;15981;43.292;-2.888;2023-04-24T10:37:44;2.43;;;1.40;;
28848;SDS011;15981;43.292;-2.888;2023-04-24T10:40:10;3.40;;;1.60;;
28848;SDS011;15981;43.292;-2.888;2023-04-24T10:42:39;3.47;;;1.48;;
28848;SDS011;15981;43.292;-2.888;2023-04-24T10:45:06;1.92;;;1.48;;
28848;SDS011;15981;43.292;-2.888;2023-04-24T10:47:41;2.40;;;1.60;;
28848;SDS011;15981;43.292;-2.888;2023-04-24T10:50:09;2.78;;;1.42;;
28848;SDS011;15981;43.292;-2.888;2023-04-24T10:52:45;2.92;;;1.50;;
28848;SDS011;15981;43.292;-2.888;2023-04-24T10:55:12;1.98;;;1.50;;
28848;SDS011;15981;43.292;-2.888;2023-04-24T10:57:38;3.15;;;1.33;;
28848;SDS011;15981;43.292;-2.888;2023-04-24T11:00:18;2.57;;;1.60;;
28848;SDS011;15981;43.292;-2.888;2023-04-24T11:02:45;2.27;;;1.60;;
28848;SDS011;15981;43.292;-2.888;2023-04-24T11:05:15;4.15;;;1.90;;
28848;SDS011;15981;43.292;-2.888;2023-04-24T11:10:26;24.08;;;12.18;;
28848;SDS011;15981;43.292;-2.888;2023-04-24T11:12:51;41.58;;;21.85;;
28848;SDS011;15981;43.292;-2.888;2023-04-24T11:15:17;52.90;;;27.90;;
28848;SDS011;15981;43.292;-2.888;2023-04-24T11:17:45;54.22;;;31.02;;
28848;SDS011;15981;43.292;-2.888;2023-04-24T11:20:11;62.58;;;35.10;;
28848;SDS011;15981;43.292;-2.888;2023-04-24T11:22:38;80.95;;;44.78;;
28848;SDS011;15981;43.292;-2.888;2023-04-24T11:25:05;197.73;;;103.75;;
28848;SDS011;15981;43.292;-2.888;2023-04-24T11:27:39;218.98;;;118.53;;
28848;SDS011;15981;43.292;-2.888;2023-04-24T11:30:05;238.00;;;127.78;;
28848;SDS011;15981;43.292;-2.888;2023-04-24T11:37:33;273.37;;;145.70;;
28848;SDS011;15981;43.292;-2.888;2023-04-24T11:39:59;256.85;;;138.50;;
28848;SDS011;15981;43.292;-2.888;2023-04-24T11:42:24;253.05;;;139.35;;
28848;SDS011;15981;43.292;-2.888;2023-04-24T11:44:54;228.40;;;120.85;;
28848;SDS011;15981;43.292;-2.888;2023-04-24T11:47:29;209.70;;;112.88;;
28848;SDS011;15981;43.292;-2.888;2023-04-24T11:49:55;197.32;;;105.60;;
28848;SDS011;15981;43.292;-2.888;2023-04-24T11:52:21;168.90;;;93.82;;
28848;SDS011;15981;43.292;-2.888;2023-04-24T11:54:47;148.77;;;81.03;;
28848;SDS011;15981;43.292;-2.888;2023-04-24T11:57:14;143.27;;;77.00;;
28848;SDS011;15981;43.292;-2.888;2023-04-24T11:59:40;149.20;;;81.93;;
28848;SDS011;15981;43.292;-2.888;2023-04-24T12:02:05;136.93;;;73.78;;
28848;SDS011;15981;43.292;-2.888;2023-04-24T12:04:40;94.68;;;51.88;;
28848;SDS011;15981;43.292;-2.888;2023-04-24T12:07:06;78.53;;;43.20;;
28848;SDS011;15981;43.292;-2.888;2023-04-24T12:09:40;74.10;;;40.65;;
28848;SDS011;15981;43.292;-2.888;2023-04-24T12:12:07;70.90;;;37.95;;
28848;SDS011;15981;43.292;-2.888;2023-04-24T12:14:32;69.10;;;37.73;;
28848;SDS011;15981;43.292;-2.888;2023-04-24T12:16:58;60.45;;;31.05;;
28848;SDS011;15981;43.292;-2.888;2023-04-24T12:19:24;60.17;;;31.10;;
28848;SDS011;15981;43.292;-2.888;2023-04-24T12:22:03;49.30;;;28.33;;
28848;SDS011;15981;43.292;-2.888;2023-04-24T12:24:30;47.03;;;25.90;;
28848;SDS011;15981;43.292;-2.888;2023-04-24T12:26:56;47.83;;;26.40;;
28848;SDS011;15981;43.292;-2.888;2023-04-24T12:29:23;43.35;;;24.45;;
28848;SDS011;15981;43.292;-2.888;2023-04-24T12:31:49;41.80;;;23.65;;
28848;SDS011;15981;43.292;-2.888;2023-04-24T12:34:19;41.90;;;22.35;;
28848;SDS011;15981;43.292;-2.888;2023-04-24T12:36:46;36.80;;;19.70;;
28848;SDS011;15981;43.292;-2.888;2023-04-24T12:39:18;33.37;;;18.53;;
28848;SDS011;15981;43.292;-2.888;2023-04-24T12:41:54;37.38;;;19.33;;
28848;SDS011;15981;43.292;-2.888;2023-04-24T12:44:31;30.70;;;16.83;;
28848;SDS011;15981;43.292;-2.888;2023-04-24T12:46:57;30.50;;;16.02;;
28848;SDS011;15981;43.292;-2.888;2023-04-24T12:49:23;25.65;;;15.00;;
28848;SDS011;15981;43.292;-2.888;2023-04-24T12:51:48;23.40;;;13.20;;
28848;SDS011;15981;43.292;-2.888;2023-04-24T12:54:14;20.13;;;11.33;;
28848;SDS011;15981;43.292;-2.888;2023-04-24T12:56:40;16.50;;;9.45;;
28848;SDS011;15981;43.292;-2.888;2023-04-24T12:59:06;17.92;;;9.00;;
28848;SDS011;15981;43.292;-2.888;2023-04-24T13:01:32;15.17;;;8.17;;
28848;SDS011;15981;43.292;-2.888;2023-04-24T13:03:57;13.00;;;7.00;;
28848;SDS011;15981;43.292;-2.888;2023-04-24T13:06:23;15.63;;;8.33;;
28848;SDS011;15981;43.292;-2.888;2023-04-24T13:08:49;14.63;;;7.30;;
28848;SDS011;15981;43.292;-2.888;2023-04-24T13:11:16;14.93;;;7.85;;
28848;SDS011;15981;43.292;-2.888;2023-04-24T13:13:42;13.77;;;7.80;;
28848;SDS011;15981;43.292;-2.888;2023-04-24T13:16:08;12.65;;;7.50;;
28848;SDS011;15981;43.292;-2.888;2023-04-24T13:18:34;15.17;;;7.40;;
28848;SDS011;15981;43.292;-2.888;2023-04-24T13:21:00;15.18;;;8.63;;
28848;SDS011;15981;43.292;-2.888;2023-04-24T13:23:25;14.50;;;8.35;;
28848;SDS011;15981;43.292;-2.888;2023-04-24T13:25:51;13.38;;;7.68;;
28848;SDS011;15981;43.292;-2.888;2023-04-24T13:28:17;13.70;;;7.70;;
28848;SDS011;15981;43.292;-2.888;2023-04-24T13:30:43;17.73;;;9.00;;
28848;SDS011;15981;43.292;-2.888;2023-04-24T13:33:08;12.27;;;7.63;;
28848;SDS011;15981;43.292;-2.888;2023-04-24T13:35:34;12.30;;;7.60;;
28848;SDS011;15981;43.292;-2.888;2023-04-24T13:38:00;13.73;;;7.30;;
28848;SDS011;15981;43.292;-2.888;2023-04-24T13:40:26;12.90;;;7.38;;
28848;SDS011;15981;43.292;-2.888;2023-04-24T13:42:52;13.32;;;7.28;;
28848;SDS011;15981;43.292;-2.888;2023-04-24T13:45:18;10.80;;;6.53;;
28848;SDS011;15981;43.292;-2.888;2023-04-24T13:47:44;11.38;;;7.10;;
28848;SDS011;15981;43.292;-2.888;2023-04-24T13:50:10;12.52;;;7.13;;
28848;SDS011;15981;43.292;-2.888;2023-04-24T13:52:35;10.70;;;5.77;;
28848;SDS011;15981;43.292;-2.888;2023-04-24T13:55:01;10.45;;;5.93;;
28848;SDS011;15981;43.292;-2.888;2023-04-24T13:57:27;10.77;;;5.50;;
28848;SDS011;15981;43.292;-2.888;2023-04-24T13:59:53;8.32;;;5.13;;
28848;SDS011;15981;43.292;-2.888;2023-04-24T14:02:21;8.80;;;5.55;;
28848;SDS011;15981;43.292;-2.888;2023-04-24T14:04:47;65.85;;;18.63;;
28848;SDS011;15981;43.292;-2.888;2023-04-24T14:07:13;41.28;;;13.27;;
28848;SDS011;15981;43.292;-2.888;2023-04-24T14:09:39;48.43;;;13.10;;
28848;SDS011;15981;43.292;-2.888;2023-04-24T14:12:05;40.33;;;12.43;;
28848;SDS011;15981;43.292;-2.888;2023-04-24T14:14:31;37.60;;;11.02;;
28848;SDS011;15981;43.292;-2.888;2023-04-24T14:16:57;31.93;;;9.87;;
28848;SDS011;15981;43.292;-2.888;2023-04-24T14:19:22;17.77;;;5.83;;
28848;SDS011;15981;43.292;-2.888;2023-04-24T14:21:49;20.17;;;6.57;;
28848;SDS011;15981;43.292;-2.888;2023-04-24T14:24:15;18.33;;;6.60;;
28848;SDS011;15981;43.292;-2.888;2023-04-24T14:26:41;10.07;;;3.50;;
28848;SDS011;15981;43.292;-2.888;2023-04-24T14:29:06;6.85;;;2.45;;
28848;SDS011;15981;43.292;-2.888;2023-04-24T14:31:32;9.03;;;3.10;;